sensor_id;sensor_type;location;lat;lon;timestamp;P1;durP1;ratioP1;P2;durP2;ratioP2
26756;SDS011;23848;49.798;10.228;2023-06-14T00:00:01;9.50;;;5.75;;
26756;SDS011;23848;49.798;10.228;2023-06-14T00:02:31;8.25;;;6.13;;
26756;SDS011;23848;49.798;10.228;2023-06-14T00:05:00;7.72;;;5.82;;
26756;SDS011;23848;49.798;10.228;2023-06-14T00:07:35;8.32;;;5.95;;
26756;SDS011;23848;49.798;10.228;2023-06-14T00:10:05;7.15;;;5.57;;
26756;SDS011;23848;49.798;10.228;2023-06-14T00:12:33;6.97;;;5.75;;
26756;SDS011;23848;49.798;10.228;2023-06-14T00:15:02;8.85;;;5.78;;
26756;SDS011;23848;49.798;10.228;2023-06-14T00:17:32;7.15;;;5.35;;
26756;SDS011;23848;49.798;10.228;2023-06-14T00:20:02;9.65;;;6.22;;
26756;SDS011;23848;49.798;10.228;2023-06-14T00:22:31;6.63;;;5.55;;
26756;SDS011;23848;49.798;10.228;2023-06-14T00:24:59;8.38;;;6.00;;
26756;SDS011;23848;49.798;10.228;2023-06-14T00:27:44;6.63;;;5.55;;
26756;SDS011;23848;49.798;10.228;2023-06-14T00:30:13;7.45;;;6.40;;
26756;SDS011;23848;49.798;10.228;2023-06-14T00:32:43;10.10;;;6.80;;
26756;SDS011;23848;49.798;10.228;2023-06-14T00:35:12;7.68;;;5.95;;
26756;SDS011;23848;49.798;10.228;2023-06-14T00:37:41;9.45;;;6.18;;
26756;SDS011;23848;49.798;10.228;2023-06-14T00:40:09;7.05;;;5.70;;
26756;SDS011;23848;49.798;10.228;2023-06-14T00:42:38;7.70;;;5.88;;
26756;SDS011;23848;49.798;10.228;2023-06-14T00:45:07;8.05;;;5.72;;
26756;SDS011;23848;49.798;10.228;2023-06-14T00:47:35;7.93;;;6.07;;
26756;SDS011;23848;49.798;10.228;2023-06-14T00:50:07;10.35;;;6.10;;
26756;SDS011;23848;49.798;10.228;2023-06-14T00:52:36;6.90;;;5.55;;
26756;SDS011;23848;49.798;10.228;2023-06-14T00:55:04;8.60;;;5.63;;
26756;SDS011;23848;49.798;10.228;2023-06-14T00:57:33;6.97;;;5.68;;
26756;SDS011;23848;49.798;10.228;2023-06-14T01:00:04;9.27;;;6.22;;
26756;SDS011;23848;49.798;10.228;2023-06-14T01:02:35;5.55;;;4.90;;
26756;SDS011;23848;49.798;10.228;2023-06-14T01:05:04;8.68;;;5.82;;
26756;SDS011;23848;49.798;10.228;2023-06-14T01:10:29;7.18;;;5.28;;
26756;SDS011;23848;49.798;10.228;2023-06-14T01:13:02;6.70;;;5.70;;
26756;SDS011;23848;49.798;10.228;2023-06-14T01:15:32;6.68;;;5.30;;
26756;SDS011;23848;49.798;10.228;2023-06-14T01:18:01;6.28;;;4.85;;
26756;SDS011;23848;49.798;10.228;2023-06-14T01:20:31;8.07;;;5.38;;
26756;SDS011;23848;49.798;10.228;2023-06-14T01:23:04;8.57;;;5.60;;
26756;SDS011;23848;49.798;10.228;2023-06-14T01:25:33;6.85;;;5.10;;
26756;SDS011;23848;49.798;10.228;2023-06-14T01:28:02;6.85;;;5.75;;
26756;SDS011;23848;49.798;10.228;2023-06-14T01:30:36;7.05;;;4.70;;
26756;SDS011;23848;49.798;10.228;2023-06-14T01:33:05;9.50;;;6.00;;
26756;SDS011;23848;49.798;10.228;2023-06-14T01:35:33;7.15;;;5.50;;
26756;SDS011;23848;49.798;10.228;2023-06-14T01:38:01;5.80;;;4.85;;
26756;SDS011;23848;49.798;10.228;2023-06-14T01:40:31;6.50;;;5.55;;
26756;SDS011;23848;49.798;10.228;2023-06-14T01:43:01;7.38;;;5.47;;
26756;SDS011;23848;49.798;10.228;2023-06-14T01:45:30;7.25;;;6.00;;
26756;SDS011;23848;49.798;10.228;2023-06-14T01:47:59;7.30;;;5.72;;
26756;SDS011;23848;49.798;10.228;2023-06-14T01:50:28;6.70;;;5.03;;
26756;SDS011;23848;49.798;10.228;2023-06-14T01:52:57;6.30;;;4.78;;
26756;SDS011;23848;49.798;10.228;2023-06-14T01:55:25;8.73;;;5.60;;
26756;SDS011;23848;49.798;10.228;2023-06-14T01:57:55;6.78;;;5.20;;
26756;SDS011;23848;49.798;10.228;2023-06-14T02:00:25;7.45;;;4.78;;
26756;SDS011;23848;49.798;10.228;2023-06-14T02:02:53;6.65;;;4.90;;
26756;SDS011;23848;49.798;10.228;2023-06-14T02:05:21;7.28;;;5.15;;
26756;SDS011;23848;49.798;10.228;2023-06-14T02:07:50;6.10;;;4.90;;
26756;SDS011;23848;49.798;10.228;2023-06-14T02:10:19;9.70;;;5.28;;
26756;SDS011;23848;49.798;10.228;2023-06-14T02:12:48;8.60;;;5.15;;
26756;SDS011;23848;49.798;10.228;2023-06-14T02:15:17;9.80;;;5.32;;
26756;SDS011;23848;49.798;10.228;2023-06-14T02:17:46;8.10;;;5.35;;
26756;SDS011;23848;49.798;10.228;2023-06-14T02:20:15;7.35;;;5.53;;
26756;SDS011;23848;49.798;10.228;2023-06-14T02:22:44;6.43;;;5.10;;
26756;SDS011;23848;49.798;10.228;2023-06-14T02:25:13;8.32;;;5.80;;
26756;SDS011;23848;49.798;10.228;2023-06-14T02:27:41;7.00;;;5.00;;
26756;SDS011;23848;49.798;10.228;2023-06-14T02:30:10;6.30;;;5.28;;
26756;SDS011;23848;49.798;10.228;2023-06-14T02:32:40;8.52;;;5.53;;
26756;SDS011;23848;49.798;10.228;2023-06-14T02:35:09;6.90;;;5.32;;
26756;SDS011;23848;49.798;10.228;2023-06-14T02:37:37;8.38;;;5.43;;
26756;SDS011;23848;49.798;10.228;2023-06-14T02:40:06;7.90;;;5.10;;
26756;SDS011;23848;49.798;10.228;2023-06-14T02:42:35;8.52;;;6.05;;
26756;SDS011;23848;49.798;10.228;2023-06-14T02:45:03;6.63;;;5.70;;
26756;SDS011;23848;49.798;10.228;2023-06-14T02:47:32;7.07;;;5.40;;
26756;SDS011;23848;49.798;10.228;2023-06-14T02:50:02;8.77;;;5.68;;
26756;SDS011;23848;49.798;10.228;2023-06-14T02:52:31;7.57;;;5.82;;
26756;SDS011;23848;49.798;10.228;2023-06-14T02:54:59;7.18;;;5.63;;
26756;SDS011;23848;49.798;10.228;2023-06-14T02:57:27;7.07;;;5.80;;
26756;SDS011;23848;49.798;10.228;2023-06-14T02:59:56;6.45;;;5.32;;
26756;SDS011;23848;49.798;10.228;2023-06-14T03:02:24;8.23;;;5.15;;
26756;SDS011;23848;49.798;10.228;2023-06-14T03:04:52;6.20;;;5.28;;
26756;SDS011;23848;49.798;10.228;2023-06-14T03:07:23;7.60;;;5.90;;
26756;SDS011;23848;49.798;10.228;2023-06-14T03:09:53;6.95;;;5.45;;
26756;SDS011;23848;49.798;10.228;2023-06-14T03:12:22;9.80;;;5.13;;
26756;SDS011;23848;49.798;10.228;2023-06-14T03:14:51;5.97;;;4.95;;
26756;SDS011;23848;49.798;10.228;2023-06-14T03:17:19;7.50;;;5.28;;
26756;SDS011;23848;49.798;10.228;2023-06-14T03:19:48;7.85;;;5.18;;
26756;SDS011;23848;49.798;10.228;2023-06-14T03:22:16;7.20;;;5.50;;
26756;SDS011;23848;49.798;10.228;2023-06-14T03:24:46;7.50;;;5.07;;
26756;SDS011;23848;49.798;10.228;2023-06-14T03:27:14;8.75;;;5.25;;
26756;SDS011;23848;49.798;10.228;2023-06-14T03:29:43;9.02;;;5.25;;
26756;SDS011;23848;49.798;10.228;2023-06-14T03:32:11;7.22;;;5.35;;
26756;SDS011;23848;49.798;10.228;2023-06-14T03:34:39;6.88;;;5.40;;
26756;SDS011;23848;49.798;10.228;2023-06-14T03:37:08;7.97;;;5.90;;
26756;SDS011;23848;49.798;10.228;2023-06-14T03:39:37;8.10;;;6.22;;
26756;SDS011;23848;49.798;10.228;2023-06-14T03:42:13;7.28;;;6.20;;
26756;SDS011;23848;49.798;10.228;2023-06-14T03:44:42;8.02;;;6.10;;
26756;SDS011;23848;49.798;10.228;2023-06-14T03:47:10;8.05;;;6.40;;
26756;SDS011;23848;49.798;10.228;2023-06-14T03:49:38;7.18;;;5.43;;
26756;SDS011;23848;49.798;10.228;2023-06-14T03:52:07;8.48;;;5.75;;
26756;SDS011;23848;49.798;10.228;2023-06-14T03:54:35;7.97;;;5.75;;
26756;SDS011;23848;49.798;10.228;2023-06-14T03:57:06;8.13;;;5.82;;
26756;SDS011;23848;49.798;10.228;2023-06-14T03:59:36;6.68;;;5.60;;
26756;SDS011;23848;49.798;10.228;2023-06-14T04:02:04;7.95;;;5.45;;
26756;SDS011;23848;49.798;10.228;2023-06-14T04:04:33;7.32;;;5.07;;
26756;SDS011;23848;49.798;10.228;2023-06-14T04:07:01;7.88;;;5.60;;
26756;SDS011;23848;49.798;10.228;2023-06-14T04:09:30;8.02;;;6.18;;
26756;SDS011;23848;49.798;10.228;2023-06-14T04:11:58;7.75;;;5.63;;
26756;SDS011;23848;49.798;10.228;2023-06-14T04:14:27;11.13;;;5.93;;
26756;SDS011;23848;49.798;10.228;2023-06-14T04:16:56;10.00;;;6.65;;
26756;SDS011;23848;49.798;10.228;2023-06-14T04:19:24;11.75;;;5.63;;
26756;SDS011;23848;49.798;10.228;2023-06-14T04:21:53;9.95;;;6.18;;
26756;SDS011;23848;49.798;10.228;2023-06-14T04:24:21;6.53;;;5.47;;
26756;SDS011;23848;49.798;10.228;2023-06-14T04:26:55;7.80;;;5.47;;
26756;SDS011;23848;49.798;10.228;2023-06-14T04:29:24;9.05;;;5.90;;
26756;SDS011;23848;49.798;10.228;2023-06-14T04:31:53;6.50;;;5.28;;
26756;SDS011;23848;49.798;10.228;2023-06-14T04:34:26;8.63;;;5.22;;
26756;SDS011;23848;49.798;10.228;2023-06-14T04:36:55;6.90;;;5.55;;
26756;SDS011;23848;49.798;10.228;2023-06-14T04:39:25;9.98;;;5.68;;
26756;SDS011;23848;49.798;10.228;2023-06-14T04:41:54;6.32;;;5.43;;
26756;SDS011;23848;49.798;10.228;2023-06-14T04:44:26;8.02;;;5.35;;
26756;SDS011;23848;49.798;10.228;2023-06-14T04:46:58;8.43;;;6.00;;
26756;SDS011;23848;49.798;10.228;2023-06-14T04:49:28;8.27;;;5.70;;
26756;SDS011;23848;49.798;10.228;2023-06-14T04:51:59;7.82;;;5.22;;
26756;SDS011;23848;49.798;10.228;2023-06-14T04:54:28;6.85;;;5.53;;
26756;SDS011;23848;49.798;10.228;2023-06-14T04:56:58;7.60;;;5.63;;
26756;SDS011;23848;49.798;10.228;2023-06-14T04:59:26;6.43;;;5.43;;
26756;SDS011;23848;49.798;10.228;2023-06-14T05:01:55;7.07;;;5.47;;
26756;SDS011;23848;49.798;10.228;2023-06-14T05:04:23;6.95;;;5.90;;
26756;SDS011;23848;49.798;10.228;2023-06-14T05:06:54;7.00;;;5.30;;
26756;SDS011;23848;49.798;10.228;2023-06-14T05:09:22;7.78;;;5.53;;
26756;SDS011;23848;49.798;10.228;2023-06-14T05:11:51;7.78;;;5.80;;
26756;SDS011;23848;49.798;10.228;2023-06-14T05:14:19;9.05;;;5.60;;
26756;SDS011;23848;49.798;10.228;2023-06-14T05:16:48;7.95;;;5.57;;
26756;SDS011;23848;49.798;10.228;2023-06-14T05:19:17;7.05;;;5.50;;
26756;SDS011;23848;49.798;10.228;2023-06-14T05:21:47;9.02;;;5.70;;
26756;SDS011;23848;49.798;10.228;2023-06-14T05:24:16;9.13;;;5.35;;
26756;SDS011;23848;49.798;10.228;2023-06-14T05:26:45;8.75;;;5.45;;
26756;SDS011;23848;49.798;10.228;2023-06-14T05:29:13;10.50;;;6.30;;
26756;SDS011;23848;49.798;10.228;2023-06-14T05:31:41;6.15;;;5.18;;
26756;SDS011;23848;49.798;10.228;2023-06-14T05:34:10;7.30;;;5.40;;
26756;SDS011;23848;49.798;10.228;2023-06-14T05:36:38;7.47;;;5.55;;
26756;SDS011;23848;49.798;10.228;2023-06-14T05:39:07;7.60;;;5.10;;
26756;SDS011;23848;49.798;10.228;2023-06-14T05:41:37;9.02;;;5.75;;
26756;SDS011;23848;49.798;10.228;2023-06-14T05:44:05;6.80;;;5.43;;
26756;SDS011;23848;49.798;10.228;2023-06-14T05:46:33;7.25;;;5.22;;
26756;SDS011;23848;49.798;10.228;2023-06-14T05:49:02;6.30;;;5.10;;
26756;SDS011;23848;49.798;10.228;2023-06-14T05:51:31;6.95;;;5.47;;
26756;SDS011;23848;49.798;10.228;2023-06-14T05:54:00;6.13;;;4.95;;
26756;SDS011;23848;49.798;10.228;2023-06-14T05:56:28;6.32;;;5.38;;
26756;SDS011;23848;49.798;10.228;2023-06-14T05:58:58;6.00;;;5.40;;
26756;SDS011;23848;49.798;10.228;2023-06-14T06:01:26;7.53;;;5.50;;
26756;SDS011;23848;49.798;10.228;2023-06-14T06:03:54;7.30;;;5.15;;
26756;SDS011;23848;49.798;10.228;2023-06-14T06:06:23;7.18;;;5.45;;
26756;SDS011;23848;49.798;10.228;2023-06-14T06:08:52;5.88;;;4.55;;
26756;SDS011;23848;49.798;10.228;2023-06-14T06:11:20;8.43;;;5.65;;
26756;SDS011;23848;49.798;10.228;2023-06-14T06:13:49;6.78;;;5.15;;
26756;SDS011;23848;49.798;10.228;2023-06-14T06:16:18;7.72;;;5.47;;
26756;SDS011;23848;49.798;10.228;2023-06-14T06:18:47;7.68;;;5.30;;
26756;SDS011;23848;49.798;10.228;2023-06-14T06:21:15;7.72;;;4.90;;
26756;SDS011;23848;49.798;10.228;2023-06-14T06:23:43;8.63;;;4.72;;
26756;SDS011;23848;49.798;10.228;2023-06-14T06:26:12;6.50;;;4.75;;
26756;SDS011;23848;49.798;10.228;2023-06-14T06:28:40;6.80;;;4.85;;
26756;SDS011;23848;49.798;10.228;2023-06-14T06:31:08;5.82;;;4.70;;
26756;SDS011;23848;49.798;10.228;2023-06-14T06:33:38;6.65;;;5.03;;
26756;SDS011;23848;49.798;10.228;2023-06-14T06:36:07;5.80;;;4.85;;
26756;SDS011;23848;49.798;10.228;2023-06-14T06:38:38;6.32;;;5.10;;
26756;SDS011;23848;49.798;10.228;2023-06-14T06:41:07;6.78;;;4.65;;
26756;SDS011;23848;49.798;10.228;2023-06-14T06:43:35;7.07;;;4.88;;
26756;SDS011;23848;49.798;10.228;2023-06-14T06:46:03;9.43;;;5.78;;
26756;SDS011;23848;49.798;10.228;2023-06-14T06:48:31;7.68;;;5.15;;
26756;SDS011;23848;49.798;10.228;2023-06-14T06:51:01;6.18;;;4.75;;
26756;SDS011;23848;49.798;10.228;2023-06-14T06:53:29;6.90;;;5.15;;
26756;SDS011;23848;49.798;10.228;2023-06-14T06:56:07;6.13;;;4.93;;
26756;SDS011;23848;49.798;10.228;2023-06-14T06:58:35;6.80;;;5.53;;
26756;SDS011;23848;49.798;10.228;2023-06-14T07:01:03;8.88;;;5.15;;
26756;SDS011;23848;49.798;10.228;2023-06-14T07:03:32;7.00;;;5.78;;
26756;SDS011;23848;49.798;10.228;2023-06-14T07:06:03;7.43;;;5.25;;
26756;SDS011;23848;49.798;10.228;2023-06-14T07:08:32;5.25;;;4.65;;
26756;SDS011;23848;49.798;10.228;2023-06-14T07:11:00;6.68;;;5.22;;
26756;SDS011;23848;49.798;10.228;2023-06-14T07:13:28;8.95;;;5.65;;
26756;SDS011;23848;49.798;10.228;2023-06-14T07:15:57;6.07;;;5.00;;
26756;SDS011;23848;49.798;10.228;2023-06-14T07:18:26;6.47;;;4.88;;
26756;SDS011;23848;49.798;10.228;2023-06-14T07:20:54;6.75;;;4.68;;
26756;SDS011;23848;49.798;10.228;2023-06-14T07:23:24;8.25;;;5.38;;
26756;SDS011;23848;49.798;10.228;2023-06-14T07:25:53;6.28;;;5.05;;
26756;SDS011;23848;49.798;10.228;2023-06-14T07:28:21;8.82;;;5.75;;
26756;SDS011;23848;49.798;10.228;2023-06-14T07:30:49;5.63;;;4.65;;
26756;SDS011;23848;49.798;10.228;2023-06-14T07:33:18;6.43;;;5.38;;
26756;SDS011;23848;49.798;10.228;2023-06-14T07:35:46;5.95;;;4.40;;
26756;SDS011;23848;49.798;10.228;2023-06-14T07:38:15;6.35;;;4.55;;
26756;SDS011;23848;49.798;10.228;2023-06-14T07:40:45;5.50;;;4.68;;
26756;SDS011;23848;49.798;10.228;2023-06-14T07:43:13;5.15;;;4.57;;
26756;SDS011;23848;49.798;10.228;2023-06-14T07:45:42;6.72;;;4.68;;
26756;SDS011;23848;49.798;10.228;2023-06-14T07:48:23;5.47;;;4.45;;
26756;SDS011;23848;49.798;10.228;2023-06-14T07:50:54;5.65;;;4.45;;
26756;SDS011;23848;49.798;10.228;2023-06-14T07:53:22;6.22;;;4.63;;
26756;SDS011;23848;49.798;10.228;2023-06-14T07:55:52;10.05;;;5.25;;
26756;SDS011;23848;49.798;10.228;2023-06-14T07:58:21;7.60;;;4.20;;
26756;SDS011;23848;49.798;10.228;2023-06-14T08:00:49;6.22;;;4.60;;
26756;SDS011;23848;49.798;10.228;2023-06-14T08:03:18;6.88;;;4.18;;
26756;SDS011;23848;49.798;10.228;2023-06-14T08:05:46;7.65;;;4.50;;
26756;SDS011;23848;49.798;10.228;2023-06-14T08:08:15;6.05;;;4.53;;
26756;SDS011;23848;49.798;10.228;2023-06-14T08:10:43;7.43;;;4.50;;
26756;SDS011;23848;49.798;10.228;2023-06-14T08:13:13;6.32;;;4.00;;
26756;SDS011;23848;49.798;10.228;2023-06-14T08:15:41;5.28;;;4.05;;
26756;SDS011;23848;49.798;10.228;2023-06-14T08:18:10;6.25;;;4.40;;
26756;SDS011;23848;49.798;10.228;2023-06-14T08:20:38;5.72;;;4.28;;
26756;SDS011;23848;49.798;10.228;2023-06-14T08:23:07;5.57;;;4.32;;
26756;SDS011;23848;49.798;10.228;2023-06-14T08:25:35;4.13;;;3.45;;
26756;SDS011;23848;49.798;10.228;2023-06-14T08:28:03;5.18;;;4.25;;
26756;SDS011;23848;49.798;10.228;2023-06-14T08:30:33;5.38;;;4.03;;
26756;SDS011;23848;49.798;10.228;2023-06-14T08:33:02;4.68;;;3.85;;
26756;SDS011;23848;49.798;10.228;2023-06-14T08:35:42;5.72;;;3.67;;
26756;SDS011;23848;49.798;10.228;2023-06-14T08:38:10;5.13;;;3.58;;
26756;SDS011;23848;49.798;10.228;2023-06-14T08:40:38;4.97;;;3.78;;
26756;SDS011;23848;49.798;10.228;2023-06-14T08:43:08;5.30;;;3.67;;
26756;SDS011;23848;49.798;10.228;2023-06-14T08:45:38;5.90;;;4.07;;
26756;SDS011;23848;49.798;10.228;2023-06-14T08:48:06;6.07;;;3.80;;
26756;SDS011;23848;49.798;10.228;2023-06-14T08:50:36;6.03;;;4.05;;
26756;SDS011;23848;49.798;10.228;2023-06-14T08:53:08;4.70;;;3.50;;
26756;SDS011;23848;49.798;10.228;2023-06-14T08:55:36;5.47;;;3.35;;
26756;SDS011;23848;49.798;10.228;2023-06-14T08:58:08;4.72;;;3.75;;
26756;SDS011;23848;49.798;10.228;2023-06-14T09:00:42;4.85;;;3.60;;
26756;SDS011;23848;49.798;10.228;2023-06-14T09:03:11;6.35;;;3.67;;
26756;SDS011;23848;49.798;10.228;2023-06-14T09:05:41;5.18;;;3.65;;
26756;SDS011;23848;49.798;10.228;2023-06-14T09:08:10;6.97;;;3.97;;
26756;SDS011;23848;49.798;10.228;2023-06-14T09:10:39;5.80;;;3.92;;
26756;SDS011;23848;49.798;10.228;2023-06-14T09:13:07;5.38;;;3.95;;
26756;SDS011;23848;49.798;10.228;2023-06-14T09:15:36;6.20;;;4.25;;
26756;SDS011;23848;49.798;10.228;2023-06-14T09:18:05;5.88;;;4.30;;
26756;SDS011;23848;49.798;10.228;2023-06-14T09:20:34;4.75;;;3.75;;
26756;SDS011;23848;49.798;10.228;2023-06-14T09:23:03;3.90;;;3.30;;
26756;SDS011;23848;49.798;10.228;2023-06-14T09:25:36;5.90;;;4.10;;
26756;SDS011;23848;49.798;10.228;2023-06-14T09:28:10;4.53;;;3.63;;
26756;SDS011;23848;49.798;10.228;2023-06-14T09:30:38;5.50;;;4.10;;
26756;SDS011;23848;49.798;10.228;2023-06-14T09:33:08;4.63;;;4.00;;
26756;SDS011;23848;49.798;10.228;2023-06-14T09:35:37;5.50;;;3.72;;
26756;SDS011;23848;49.798;10.228;2023-06-14T09:38:05;4.60;;;4.10;;
26756;SDS011;23848;49.798;10.228;2023-06-14T09:40:34;6.63;;;4.07;;
26756;SDS011;23848;49.798;10.228;2023-06-14T09:43:06;4.05;;;3.40;;
26756;SDS011;23848;49.798;10.228;2023-06-14T09:45:37;6.13;;;3.83;;
26756;SDS011;23848;49.798;10.228;2023-06-14T09:48:08;8.63;;;3.85;;
26756;SDS011;23848;49.798;10.228;2023-06-14T09:50:37;4.45;;;3.45;;
26756;SDS011;23848;49.798;10.228;2023-06-14T09:53:06;4.13;;;3.60;;
26756;SDS011;23848;49.798;10.228;2023-06-14T09:55:34;7.18;;;3.83;;
26756;SDS011;23848;49.798;10.228;2023-06-14T09:58:04;6.50;;;3.42;;
26756;SDS011;23848;49.798;10.228;2023-06-14T10:00:34;4.32;;;3.22;;
26756;SDS011;23848;49.798;10.228;2023-06-14T10:03:06;5.00;;;3.50;;
26756;SDS011;23848;49.798;10.228;2023-06-14T10:05:36;4.70;;;3.40;;
26756;SDS011;23848;49.798;10.228;2023-06-14T10:08:07;4.32;;;3.08;;
26756;SDS011;23848;49.798;10.228;2023-06-14T10:10:35;5.05;;;3.33;;
26756;SDS011;23848;49.798;10.228;2023-06-14T10:13:06;5.15;;;3.08;;
26756;SDS011;23848;49.798;10.228;2023-06-14T10:15:38;5.07;;;3.00;;
26756;SDS011;23848;49.798;10.228;2023-06-14T10:18:11;3.55;;;2.65;;
26756;SDS011;23848;49.798;10.228;2023-06-14T10:20:50;5.15;;;3.28;;
26756;SDS011;23848;49.798;10.228;2023-06-14T10:25:49;4.25;;;3.00;;
26756;SDS011;23848;49.798;10.228;2023-06-14T10:28:18;3.80;;;2.92;;
26756;SDS011;23848;49.798;10.228;2023-06-14T10:31:08;5.20;;;3.13;;
26756;SDS011;23848;49.798;10.228;2023-06-14T10:33:39;4.38;;;2.97;;
26756;SDS011;23848;49.798;10.228;2023-06-14T10:36:24;3.95;;;2.50;;
26756;SDS011;23848;49.798;10.228;2023-06-14T10:38:57;4.30;;;2.80;;
26756;SDS011;23848;49.798;10.228;2023-06-14T10:41:26;4.57;;;3.10;;
26756;SDS011;23848;49.798;10.228;2023-06-14T10:46:45;3.75;;;3.05;;
26756;SDS011;23848;49.798;10.228;2023-06-14T10:49:15;5.07;;;2.65;;
26756;SDS011;23848;49.798;10.228;2023-06-14T10:51:49;3.63;;;2.88;;
26756;SDS011;23848;49.798;10.228;2023-06-14T10:56:46;7.00;;;3.40;;
26756;SDS011;23848;49.798;10.228;2023-06-14T10:59:15;3.58;;;2.83;;
26756;SDS011;23848;49.798;10.228;2023-06-14T11:01:46;3.90;;;2.53;;
26756;SDS011;23848;49.798;10.228;2023-06-14T11:04:22;3.70;;;2.60;;
26756;SDS011;23848;49.798;10.228;2023-06-14T11:06:53;5.00;;;2.90;;
26756;SDS011;23848;49.798;10.228;2023-06-14T11:12:26;5.35;;;2.25;;
26756;SDS011;23848;49.798;10.228;2023-06-14T11:14:56;3.92;;;2.83;;
26756;SDS011;23848;49.798;10.228;2023-06-14T11:17:24;3.42;;;2.50;;
26756;SDS011;23848;49.798;10.228;2023-06-14T11:20:06;4.07;;;2.80;;
26756;SDS011;23848;49.798;10.228;2023-06-14T11:22:40;4.72;;;2.75;;
26756;SDS011;23848;49.798;10.228;2023-06-14T11:25:09;4.40;;;2.97;;
26756;SDS011;23848;49.798;10.228;2023-06-14T11:27:37;4.10;;;2.70;;
26756;SDS011;23848;49.798;10.228;2023-06-14T11:30:07;5.70;;;2.55;;
26756;SDS011;23848;49.798;10.228;2023-06-14T11:32:36;4.78;;;3.10;;
26756;SDS011;23848;49.798;10.228;2023-06-14T11:35:05;3.50;;;2.47;;
26756;SDS011;23848;49.798;10.228;2023-06-14T11:37:34;6.03;;;2.60;;
26756;SDS011;23848;49.798;10.228;2023-06-14T11:40:06;5.97;;;2.70;;
26756;SDS011;23848;49.798;10.228;2023-06-14T11:42:36;4.15;;;2.72;;
26756;SDS011;23848;49.798;10.228;2023-06-14T11:45:06;3.92;;;2.72;;
26756;SDS011;23848;49.798;10.228;2023-06-14T11:47:36;4.50;;;2.47;;
26756;SDS011;23848;49.798;10.228;2023-06-14T11:50:09;4.63;;;2.60;;
26756;SDS011;23848;49.798;10.228;2023-06-14T11:52:38;3.03;;;2.15;;
26756;SDS011;23848;49.798;10.228;2023-06-14T11:55:08;4.70;;;2.60;;
26756;SDS011;23848;49.798;10.228;2023-06-14T11:57:37;5.55;;;2.80;;
26756;SDS011;23848;49.798;10.228;2023-06-14T12:00:06;5.53;;;3.00;;
26756;SDS011;23848;49.798;10.228;2023-06-14T12:02:38;4.22;;;2.85;;
26756;SDS011;23848;49.798;10.228;2023-06-14T12:05:07;5.13;;;2.60;;
26756;SDS011;23848;49.798;10.228;2023-06-14T12:07:36;4.35;;;3.20;;
26756;SDS011;23848;49.798;10.228;2023-06-14T12:10:07;5.05;;;2.80;;
26756;SDS011;23848;49.798;10.228;2023-06-14T12:12:38;4.72;;;2.60;;
26756;SDS011;23848;49.798;10.228;2023-06-14T12:15:08;4.32;;;2.60;;
26756;SDS011;23848;49.798;10.228;2023-06-14T12:17:38;3.42;;;2.53;;
26756;SDS011;23848;49.798;10.228;2023-06-14T12:20:08;3.72;;;2.40;;
26756;SDS011;23848;49.798;10.228;2023-06-14T12:22:46;4.32;;;2.80;;
26756;SDS011;23848;49.798;10.228;2023-06-14T12:25:23;3.63;;;2.60;;
26756;SDS011;23848;49.798;10.228;2023-06-14T12:27:54;6.55;;;3.08;;
26756;SDS011;23848;49.798;10.228;2023-06-14T12:30:23;4.10;;;2.92;;
26756;SDS011;23848;49.798;10.228;2023-06-14T12:32:51;3.85;;;2.67;;
26756;SDS011;23848;49.798;10.228;2023-06-14T12:35:20;5.15;;;2.65;;
26756;SDS011;23848;49.798;10.228;2023-06-14T12:37:48;3.85;;;2.35;;
26756;SDS011;23848;49.798;10.228;2023-06-14T12:40:19;3.90;;;2.50;;
26756;SDS011;23848;49.798;10.228;2023-06-14T12:42:47;3.08;;;2.35;;
26756;SDS011;23848;49.798;10.228;2023-06-14T12:45:17;3.90;;;2.40;;
26756;SDS011;23848;49.798;10.228;2023-06-14T12:47:45;3.67;;;2.60;;
26756;SDS011;23848;49.798;10.228;2023-06-14T12:50:14;4.10;;;2.60;;
26756;SDS011;23848;49.798;10.228;2023-06-14T12:52:42;3.45;;;2.45;;
26756;SDS011;23848;49.798;10.228;2023-06-14T12:55:11;5.72;;;2.40;;
26756;SDS011;23848;49.798;10.228;2023-06-14T12:57:40;6.00;;;2.65;;
26756;SDS011;23848;49.798;10.228;2023-06-14T13:00:09;5.55;;;3.03;;
26756;SDS011;23848;49.798;10.228;2023-06-14T13:02:41;4.45;;;2.50;;
26756;SDS011;23848;49.798;10.228;2023-06-14T13:05:09;3.67;;;2.42;;
26756;SDS011;23848;49.798;10.228;2023-06-14T13:07:37;3.80;;;2.40;;
26756;SDS011;23848;49.798;10.228;2023-06-14T13:10:06;5.53;;;2.67;;
26756;SDS011;23848;49.798;10.228;2023-06-14T13:12:34;4.22;;;3.00;;
26756;SDS011;23848;49.798;10.228;2023-06-14T13:15:03;5.45;;;2.55;;
26756;SDS011;23848;49.798;10.228;2023-06-14T13:17:31;3.80;;;2.45;;
26756;SDS011;23848;49.798;10.228;2023-06-14T13:20:06;2.70;;;2.40;;
26756;SDS011;23848;49.798;10.228;2023-06-14T13:22:35;3.47;;;2.40;;
26756;SDS011;23848;49.798;10.228;2023-06-14T13:25:06;4.68;;;2.33;;
26756;SDS011;23848;49.798;10.228;2023-06-14T13:27:34;3.28;;;2.35;;
26756;SDS011;23848;49.798;10.228;2023-06-14T13:30:03;3.53;;;2.42;;
26756;SDS011;23848;49.798;10.228;2023-06-14T13:32:32;4.00;;;2.72;;
26756;SDS011;23848;49.798;10.228;2023-06-14T13:35:00;5.18;;;2.60;;
26756;SDS011;23848;49.798;10.228;2023-06-14T13:37:31;4.90;;;2.75;;
26756;SDS011;23848;49.798;10.228;2023-06-14T13:40:00;4.35;;;2.70;;
26756;SDS011;23848;49.798;10.228;2023-06-14T13:42:28;4.68;;;2.63;;
26756;SDS011;23848;49.798;10.228;2023-06-14T13:44:58;3.28;;;2.40;;
26756;SDS011;23848;49.798;10.228;2023-06-14T13:47:27;3.50;;;2.92;;
26756;SDS011;23848;49.798;10.228;2023-06-14T13:49:55;2.88;;;2.22;;
26756;SDS011;23848;49.798;10.228;2023-06-14T13:52:24;3.58;;;2.45;;
26756;SDS011;23848;49.798;10.228;2023-06-14T13:54:54;4.43;;;2.75;;
26756;SDS011;23848;49.798;10.228;2023-06-14T13:57:22;3.30;;;2.40;;
26756;SDS011;23848;49.798;10.228;2023-06-14T13:59:52;3.22;;;2.20;;
26756;SDS011;23848;49.798;10.228;2023-06-14T14:02:21;3.90;;;2.60;;
26756;SDS011;23848;49.798;10.228;2023-06-14T14:04:50;3.67;;;2.55;;
26756;SDS011;23848;49.798;10.228;2023-06-14T14:07:20;3.90;;;2.70;;
26756;SDS011;23848;49.798;10.228;2023-06-14T14:09:48;4.88;;;3.17;;
26756;SDS011;23848;49.798;10.228;2023-06-14T14:12:18;3.53;;;2.40;;
26756;SDS011;23848;49.798;10.228;2023-06-14T14:14:46;3.30;;;2.63;;
26756;SDS011;23848;49.798;10.228;2023-06-14T14:17:14;4.53;;;2.72;;
26756;SDS011;23848;49.798;10.228;2023-06-14T14:19:43;7.40;;;2.63;;
26756;SDS011;23848;49.798;10.228;2023-06-14T14:22:11;5.28;;;2.40;;
26756;SDS011;23848;49.798;10.228;2023-06-14T14:24:39;3.15;;;2.22;;
26756;SDS011;23848;49.798;10.228;2023-06-14T14:27:08;5.22;;;2.47;;
26756;SDS011;23848;49.798;10.228;2023-06-14T14:29:38;3.38;;;2.53;;
26756;SDS011;23848;49.798;10.228;2023-06-14T14:32:06;4.35;;;3.00;;
26756;SDS011;23848;49.798;10.228;2023-06-14T14:34:39;3.63;;;2.67;;
26756;SDS011;23848;49.798;10.228;2023-06-14T14:37:07;6.53;;;2.60;;
26756;SDS011;23848;49.798;10.228;2023-06-14T14:39:36;3.35;;;2.42;;
26756;SDS011;23848;49.798;10.228;2023-06-14T14:42:05;3.88;;;2.45;;
26756;SDS011;23848;49.798;10.228;2023-06-14T14:44:34;4.57;;;2.67;;
26756;SDS011;23848;49.798;10.228;2023-06-14T14:47:04;4.85;;;2.78;;
26756;SDS011;23848;49.798;10.228;2023-06-14T14:49:32;2.67;;;2.22;;
26756;SDS011;23848;49.798;10.228;2023-06-14T14:52:01;6.03;;;2.40;;
26756;SDS011;23848;49.798;10.228;2023-06-14T14:54:48;3.83;;;2.45;;
26756;SDS011;23848;49.798;10.228;2023-06-14T14:57:16;4.75;;;2.75;;
26756;SDS011;23848;49.798;10.228;2023-06-14T14:59:45;3.33;;;2.40;;